X  Sluiten METAR luchtvaart weer gegevens      EDLV Weeze Airport
Temperatuur
15°C Temperatuur
15°C Dauwpunt
100% Vochtigheid



Wind
19 KM/U
12 MPH
5 M/S
10 KTS



360°
N
Huidig weer

Regen Regen
Luchtdruk 1007.79 (hPa) - 29.76 (inHg)
Zicht 2 (mijl) - 3.2 (km)
Vliegveld
Vliegveld code EDLV

Locatie : Weeze Airport
Afstand: 9 (km)

Metar:
EDLV 120920Z 36010KT 310V030 3200 RA SCT005 BKN012 OVC032 15/15 Q1008

Tijd: 12-07-2024 11:20 CEST